sensor_id;sensor_type;location;lat;lon;timestamp;P1;durP1;ratioP1;P2;durP2;ratioP2
55497;SDS011;41357;52.806;18.268;2023-05-10T00:00:34;7.53;;;3.40;;
55497;SDS011;41357;52.806;18.268;2023-05-10T00:03:00;7.13;;;3.22;;
55497;SDS011;41357;52.806;18.268;2023-05-10T00:05:26;6.50;;;2.90;;
55497;SDS011;41357;52.806;18.268;2023-05-10T00:07:52;6.65;;;3.13;;
55497;SDS011;41357;52.806;18.268;2023-05-10T00:10:18;9.18;;;3.03;;
55497;SDS011;41357;52.806;18.268;2023-05-10T00:12:44;5.88;;;3.38;;
55497;SDS011;41357;52.806;18.268;2023-05-10T00:15:10;5.80;;;2.97;;
55497;SDS011;41357;52.806;18.268;2023-05-10T00:17:36;7.13;;;3.25;;
55497;SDS011;41357;52.806;18.268;2023-05-10T00:20:02;5.70;;;3.28;;
55497;SDS011;41357;52.806;18.268;2023-05-10T00:22:30;8.23;;;3.30;;
55497;SDS011;41357;52.806;18.268;2023-05-10T00:24:56;5.18;;;2.78;;
55497;SDS011;41357;52.806;18.268;2023-05-10T00:27:22;10.32;;;3.42;;
55497;SDS011;41357;52.806;18.268;2023-05-10T00:29:49;7.10;;;3.45;;
55497;SDS011;41357;52.806;18.268;2023-05-10T00:32:15;6.03;;;3.35;;
55497;SDS011;41357;52.806;18.268;2023-05-10T00:34:41;9.63;;;3.45;;
55497;SDS011;41357;52.806;18.268;2023-05-10T00:37:07;5.47;;;3.30;;
55497;SDS011;41357;52.806;18.268;2023-05-10T00:39:33;6.15;;;3.10;;
55497;SDS011;41357;52.806;18.268;2023-05-10T00:41:59;5.78;;;3.10;;
55497;SDS011;41357;52.806;18.268;2023-05-10T00:44:26;7.22;;;3.40;;
55497;SDS011;41357;52.806;18.268;2023-05-10T00:46:52;7.45;;;3.40;;
55497;SDS011;41357;52.806;18.268;2023-05-10T00:49:18;6.63;;;3.25;;
55497;SDS011;41357;52.806;18.268;2023-05-10T00:51:45;8.27;;;3.53;;
55497;SDS011;41357;52.806;18.268;2023-05-10T00:54:12;9.95;;;3.67;;
55497;SDS011;41357;52.806;18.268;2023-05-10T00:56:40;7.82;;;4.32;;
55497;SDS011;41357;52.806;18.268;2023-05-10T00:59:06;8.18;;;3.72;;
55497;SDS011;41357;52.806;18.268;2023-05-10T01:01:34;11.73;;;3.00;;
55497;SDS011;41357;52.806;18.268;2023-05-10T01:04:01;5.82;;;3.47;;
55497;SDS011;41357;52.806;18.268;2023-05-10T01:06:28;6.88;;;3.40;;
55497;SDS011;41357;52.806;18.268;2023-05-10T01:08:54;9.80;;;2.90;;
55497;SDS011;41357;52.806;18.268;2023-05-10T01:11:21;6.05;;;3.40;;
55497;SDS011;41357;52.806;18.268;2023-05-10T01:13:47;10.48;;;2.92;;
55497;SDS011;41357;52.806;18.268;2023-05-10T01:16:16;5.75;;;3.33;;
55497;SDS011;41357;52.806;18.268;2023-05-10T01:18:42;8.40;;;3.28;;
55497;SDS011;41357;52.806;18.268;2023-05-10T01:26:31;7.00;;;3.42;;
55497;SDS011;41357;52.806;18.268;2023-05-10T01:34:17;6.40;;;3.58;;
55497;SDS011;41357;52.806;18.268;2023-05-10T01:36:59;6.75;;;3.38;;
55497;SDS011;41357;52.806;18.268;2023-05-10T01:39:31;9.60;;;3.78;;
55497;SDS011;41357;52.806;18.268;2023-05-10T01:42:10;5.32;;;3.15;;
55497;SDS011;41357;52.806;18.268;2023-05-10T01:44:42;6.07;;;2.92;;
55497;SDS011;41357;52.806;18.268;2023-05-10T01:47:54;10.43;;;3.42;;
55497;SDS011;41357;52.806;18.268;2023-05-10T01:50:02;8.27;;;4.05;;
55497;SDS011;41357;52.806;18.268;2023-05-10T01:52:53;7.13;;;4.05;;
55497;SDS011;41357;52.806;18.268;2023-05-10T01:55:20;5.93;;;3.58;;
55497;SDS011;41357;52.806;18.268;2023-05-10T01:57:47;8.25;;;3.42;;
55497;SDS011;41357;52.806;18.268;2023-05-10T02:00:14;10.38;;;3.92;;
55497;SDS011;41357;52.806;18.268;2023-05-10T02:02:42;11.70;;;4.07;;
55497;SDS011;41357;52.806;18.268;2023-05-10T02:05:10;7.30;;;3.90;;
55497;SDS011;41357;52.806;18.268;2023-05-10T02:07:37;5.15;;;3.00;;
55497;SDS011;41357;52.806;18.268;2023-05-10T02:10:04;7.07;;;3.33;;
55497;SDS011;41357;52.806;18.268;2023-05-10T02:12:31;7.65;;;3.60;;
55497;SDS011;41357;52.806;18.268;2023-05-10T02:14:59;6.65;;;3.88;;
55497;SDS011;41357;52.806;18.268;2023-05-10T02:17:26;10.85;;;4.43;;
55497;SDS011;41357;52.806;18.268;2023-05-10T02:19:53;6.63;;;3.38;;
55497;SDS011;41357;52.806;18.268;2023-05-10T02:22:21;7.13;;;4.00;;
55497;SDS011;41357;52.806;18.268;2023-05-10T02:24:48;6.60;;;3.90;;
55497;SDS011;41357;52.806;18.268;2023-05-10T02:27:15;7.53;;;3.45;;
55497;SDS011;41357;52.806;18.268;2023-05-10T02:29:42;7.95;;;3.47;;
55497;SDS011;41357;52.806;18.268;2023-05-10T02:32:09;10.57;;;4.03;;
55497;SDS011;41357;52.806;18.268;2023-05-10T02:34:35;6.78;;;3.85;;
55497;SDS011;41357;52.806;18.268;2023-05-10T02:37:02;7.10;;;3.95;;
55497;SDS011;41357;52.806;18.268;2023-05-10T02:39:28;5.55;;;3.50;;
55497;SDS011;41357;52.806;18.268;2023-05-10T02:41:55;8.15;;;4.00;;
55497;SDS011;41357;52.806;18.268;2023-05-10T02:44:21;5.70;;;3.40;;
55497;SDS011;41357;52.806;18.268;2023-05-10T02:46:48;8.98;;;3.10;;
55497;SDS011;41357;52.806;18.268;2023-05-10T02:49:14;6.03;;;3.53;;
55497;SDS011;41357;52.806;18.268;2023-05-10T02:51:42;6.35;;;3.72;;
55497;SDS011;41357;52.806;18.268;2023-05-10T02:54:12;7.95;;;3.80;;
55497;SDS011;41357;52.806;18.268;2023-05-10T02:56:42;6.82;;;3.80;;
55497;SDS011;41357;52.806;18.268;2023-05-10T02:59:08;7.97;;;3.58;;
55497;SDS011;41357;52.806;18.268;2023-05-10T03:01:34;10.48;;;3.33;;
55497;SDS011;41357;52.806;18.268;2023-05-10T03:04:01;7.90;;;3.72;;
55497;SDS011;41357;52.806;18.268;2023-05-10T03:06:27;6.38;;;3.63;;
55497;SDS011;41357;52.806;18.268;2023-05-10T03:08:53;8.60;;;3.60;;
55497;SDS011;41357;52.806;18.268;2023-05-10T03:14:30;6.47;;;3.78;;
55497;SDS011;41357;52.806;18.268;2023-05-10T03:16:52;6.57;;;3.78;;
55497;SDS011;41357;52.806;18.268;2023-05-10T03:19:26;5.65;;;3.28;;
55497;SDS011;41357;52.806;18.268;2023-05-10T03:21:53;7.63;;;3.35;;
55497;SDS011;41357;52.806;18.268;2023-05-10T03:24:22;11.02;;;3.78;;
55497;SDS011;41357;52.806;18.268;2023-05-10T03:26:49;9.10;;;4.03;;
55497;SDS011;41357;52.806;18.268;2023-05-10T03:29:15;11.48;;;3.55;;
55497;SDS011;41357;52.806;18.268;2023-05-10T03:31:41;6.93;;;3.55;;
55497;SDS011;41357;52.806;18.268;2023-05-10T03:34:07;8.25;;;3.92;;
55497;SDS011;41357;52.806;18.268;2023-05-10T03:36:33;5.97;;;3.40;;
55497;SDS011;41357;52.806;18.268;2023-05-10T03:39:00;11.00;;;3.85;;
55497;SDS011;41357;52.806;18.268;2023-05-10T03:41:26;10.32;;;4.30;;
55497;SDS011;41357;52.806;18.268;2023-05-10T03:43:52;10.20;;;3.30;;
55497;SDS011;41357;52.806;18.268;2023-05-10T03:46:18;6.32;;;3.85;;
55497;SDS011;41357;52.806;18.268;2023-05-10T03:48:44;6.70;;;2.88;;
55497;SDS011;41357;52.806;18.268;2023-05-10T03:51:10;6.55;;;3.15;;
55497;SDS011;41357;52.806;18.268;2023-05-10T03:53:36;6.78;;;3.83;;
55497;SDS011;41357;52.806;18.268;2023-05-10T03:56:02;9.57;;;3.67;;
55497;SDS011;41357;52.806;18.268;2023-05-10T03:58:28;8.45;;;3.60;;
55497;SDS011;41357;52.806;18.268;2023-05-10T04:00:54;6.60;;;3.83;;
55497;SDS011;41357;52.806;18.268;2023-05-10T04:03:21;11.27;;;3.67;;
55497;SDS011;41357;52.806;18.268;2023-05-10T04:05:47;9.45;;;3.45;;
55497;SDS011;41357;52.806;18.268;2023-05-10T04:08:13;6.95;;;3.00;;
55497;SDS011;41357;52.806;18.268;2023-05-10T04:10:41;9.02;;;3.22;;
55497;SDS011;41357;52.806;18.268;2023-05-10T04:13:07;9.27;;;3.50;;
55497;SDS011;41357;52.806;18.268;2023-05-10T04:15:33;11.45;;;2.97;;
55497;SDS011;41357;52.806;18.268;2023-05-10T04:18:00;10.02;;;3.90;;
55497;SDS011;41357;52.806;18.268;2023-05-10T04:20:26;6.07;;;3.38;;
55497;SDS011;41357;52.806;18.268;2023-05-10T04:22:52;9.77;;;3.90;;
55497;SDS011;41357;52.806;18.268;2023-05-10T04:25:18;9.98;;;3.55;;
55497;SDS011;41357;52.806;18.268;2023-05-10T04:27:45;8.40;;;3.70;;
55497;SDS011;41357;52.806;18.268;2023-05-10T04:30:11;6.60;;;3.55;;
55497;SDS011;41357;52.806;18.268;2023-05-10T04:32:37;8.07;;;4.22;;
55497;SDS011;41357;52.806;18.268;2023-05-10T04:35:03;15.40;;;5.53;;
55497;SDS011;41357;52.806;18.268;2023-05-10T04:37:29;23.80;;;7.32;;
55497;SDS011;41357;52.806;18.268;2023-05-10T04:39:55;14.82;;;6.28;;
55497;SDS011;41357;52.806;18.268;2023-05-10T04:42:21;15.38;;;5.80;;
55497;SDS011;41357;52.806;18.268;2023-05-10T04:44:49;11.07;;;5.88;;
55497;SDS011;41357;52.806;18.268;2023-05-10T04:47:16;12.68;;;4.40;;
55497;SDS011;41357;52.806;18.268;2023-05-10T04:49:42;8.98;;;3.80;;
55497;SDS011;41357;52.806;18.268;2023-05-10T04:52:09;10.57;;;3.45;;
55497;SDS011;41357;52.806;18.268;2023-05-10T04:54:35;7.88;;;3.92;;
55497;SDS011;41357;52.806;18.268;2023-05-10T04:57:01;8.10;;;3.45;;
55497;SDS011;41357;52.806;18.268;2023-05-10T04:59:27;8.98;;;3.60;;
55497;SDS011;41357;52.806;18.268;2023-05-10T05:01:53;8.52;;;4.03;;
55497;SDS011;41357;52.806;18.268;2023-05-10T05:04:19;9.27;;;4.15;;
55497;SDS011;41357;52.806;18.268;2023-05-10T05:06:45;6.25;;;3.80;;
55497;SDS011;41357;52.806;18.268;2023-05-10T05:09:11;10.93;;;3.72;;
55497;SDS011;41357;52.806;18.268;2023-05-10T05:11:37;5.95;;;3.75;;
55497;SDS011;41357;52.806;18.268;2023-05-10T05:14:04;7.05;;;3.60;;
55497;SDS011;41357;52.806;18.268;2023-05-10T05:16:31;7.38;;;3.38;;
55497;SDS011;41357;52.806;18.268;2023-05-10T05:18:57;8.32;;;2.85;;
55497;SDS011;41357;52.806;18.268;2023-05-10T05:21:23;6.20;;;3.25;;
55497;SDS011;41357;52.806;18.268;2023-05-10T05:23:51;12.27;;;3.50;;
55497;SDS011;41357;52.806;18.268;2023-05-10T05:26:18;8.48;;;2.95;;
55497;SDS011;41357;52.806;18.268;2023-05-10T05:28:44;9.35;;;3.10;;
55497;SDS011;41357;52.806;18.268;2023-05-10T05:31:10;9.38;;;3.40;;
55497;SDS011;41357;52.806;18.268;2023-05-10T05:33:36;6.72;;;3.45;;
55497;SDS011;41357;52.806;18.268;2023-05-10T05:36:03;6.50;;;3.08;;
55497;SDS011;41357;52.806;18.268;2023-05-10T05:38:29;7.45;;;3.42;;
55497;SDS011;41357;52.806;18.268;2023-05-10T05:40:56;10.63;;;3.42;;
55497;SDS011;41357;52.806;18.268;2023-05-10T05:43:22;5.90;;;3.00;;
55497;SDS011;41357;52.806;18.268;2023-05-10T05:45:48;7.65;;;3.10;;
55497;SDS011;41357;52.806;18.268;2023-05-10T05:48:14;7.05;;;2.85;;
55497;SDS011;41357;52.806;18.268;2023-05-10T05:50:40;7.60;;;2.80;;
55497;SDS011;41357;52.806;18.268;2023-05-10T05:53:06;8.27;;;2.50;;
55497;SDS011;41357;52.806;18.268;2023-05-10T05:55:33;8.27;;;3.17;;
55497;SDS011;41357;52.806;18.268;2023-05-10T05:57:59;6.38;;;3.50;;
55497;SDS011;41357;52.806;18.268;2023-05-10T06:00:25;6.90;;;3.30;;
55497;SDS011;41357;52.806;18.268;2023-05-10T06:02:51;6.60;;;3.03;;
55497;SDS011;41357;52.806;18.268;2023-05-10T06:05:18;4.72;;;2.90;;
55497;SDS011;41357;52.806;18.268;2023-05-10T06:07:45;8.45;;;3.60;;
55497;SDS011;41357;52.806;18.268;2023-05-10T06:10:11;6.72;;;3.65;;
55497;SDS011;41357;52.806;18.268;2023-05-10T06:12:37;8.32;;;3.13;;
55497;SDS011;41357;52.806;18.268;2023-05-10T06:15:03;7.30;;;2.80;;
55497;SDS011;41357;52.806;18.268;2023-05-10T06:17:30;9.18;;;3.03;;
55497;SDS011;41357;52.806;18.268;2023-05-10T06:19:56;5.85;;;2.65;;
55497;SDS011;41357;52.806;18.268;2023-05-10T06:22:22;5.53;;;3.10;;
55497;SDS011;41357;52.806;18.268;2023-05-10T06:24:48;5.75;;;2.55;;
55497;SDS011;41357;52.806;18.268;2023-05-10T06:27:14;5.70;;;2.90;;
55497;SDS011;41357;52.806;18.268;2023-05-10T06:29:41;13.25;;;2.78;;
55497;SDS011;41357;52.806;18.268;2023-05-10T06:32:07;8.77;;;3.13;;
55497;SDS011;41357;52.806;18.268;2023-05-10T06:34:33;6.38;;;2.95;;
55497;SDS011;41357;52.806;18.268;2023-05-10T06:36:59;6.20;;;2.50;;
55497;SDS011;41357;52.806;18.268;2023-05-10T06:39:25;3.65;;;2.53;;
55497;SDS011;41357;52.806;18.268;2023-05-10T06:41:51;4.45;;;2.40;;
55497;SDS011;41357;52.806;18.268;2023-05-10T06:44:18;6.95;;;2.95;;
55497;SDS011;41357;52.806;18.268;2023-05-10T06:46:44;5.88;;;2.45;;
55497;SDS011;41357;52.806;18.268;2023-05-10T06:49:10;7.68;;;2.58;;
55497;SDS011;41357;52.806;18.268;2023-05-10T06:51:36;5.47;;;2.47;;
55497;SDS011;41357;52.806;18.268;2023-05-10T06:54:02;12.52;;;5.93;;
55497;SDS011;41357;52.806;18.268;2023-05-10T06:56:28;5.28;;;2.58;;
55497;SDS011;41357;52.806;18.268;2023-05-10T06:58:54;5.38;;;3.08;;
55497;SDS011;41357;52.806;18.268;2023-05-10T07:01:20;8.93;;;3.47;;
55497;SDS011;41357;52.806;18.268;2023-05-10T07:03:47;4.18;;;2.45;;
55497;SDS011;41357;52.806;18.268;2023-05-10T07:06:13;5.82;;;2.90;;
55497;SDS011;41357;52.806;18.268;2023-05-10T07:08:39;4.88;;;2.50;;
55497;SDS011;41357;52.806;18.268;2023-05-10T07:11:05;3.72;;;2.80;;
55497;SDS011;41357;52.806;18.268;2023-05-10T07:13:32;4.82;;;2.47;;
55497;SDS011;41357;52.806;18.268;2023-05-10T07:15:59;5.75;;;2.60;;
55497;SDS011;41357;52.806;18.268;2023-05-10T07:18:25;4.93;;;2.22;;
55497;SDS011;41357;52.806;18.268;2023-05-10T07:20:52;7.05;;;2.78;;
55497;SDS011;41357;52.806;18.268;2023-05-10T07:23:18;5.68;;;2.53;;
55497;SDS011;41357;52.806;18.268;2023-05-10T07:25:45;6.07;;;2.50;;
55497;SDS011;41357;52.806;18.268;2023-05-10T07:28:11;6.47;;;2.72;;
55497;SDS011;41357;52.806;18.268;2023-05-10T07:30:38;5.55;;;2.60;;
55497;SDS011;41357;52.806;18.268;2023-05-10T07:33:04;6.22;;;2.40;;
55497;SDS011;41357;52.806;18.268;2023-05-10T07:35:30;4.13;;;2.67;;
55497;SDS011;41357;52.806;18.268;2023-05-10T07:37:56;3.70;;;2.40;;
55497;SDS011;41357;52.806;18.268;2023-05-10T07:40:22;4.88;;;2.63;;
55497;SDS011;41357;52.806;18.268;2023-05-10T07:42:48;8.82;;;2.45;;
55497;SDS011;41357;52.806;18.268;2023-05-10T07:45:14;4.65;;;2.17;;
55497;SDS011;41357;52.806;18.268;2023-05-10T07:47:40;6.00;;;2.35;;
55497;SDS011;41357;52.806;18.268;2023-05-10T07:50:07;5.05;;;2.53;;
55497;SDS011;41357;52.806;18.268;2023-05-10T07:52:33;6.88;;;2.53;;
55497;SDS011;41357;52.806;18.268;2023-05-10T07:54:59;5.25;;;2.15;;
55497;SDS011;41357;52.806;18.268;2023-05-10T07:57:25;7.88;;;2.90;;
55497;SDS011;41357;52.806;18.268;2023-05-10T07:59:51;3.97;;;2.20;;
55497;SDS011;41357;52.806;18.268;2023-05-10T08:02:18;8.27;;;2.33;;
55497;SDS011;41357;52.806;18.268;2023-05-10T08:04:44;4.10;;;2.30;;
55497;SDS011;41357;52.806;18.268;2023-05-10T08:07:10;9.98;;;2.70;;
55497;SDS011;41357;52.806;18.268;2023-05-10T08:09:36;8.70;;;2.75;;
55497;SDS011;41357;52.806;18.268;2023-05-10T08:12:02;5.60;;;2.53;;
55497;SDS011;41357;52.806;18.268;2023-05-10T08:14:29;6.43;;;2.22;;
55497;SDS011;41357;52.806;18.268;2023-05-10T08:16:55;4.85;;;2.33;;
55497;SDS011;41357;52.806;18.268;2023-05-10T08:19:21;9.13;;;2.55;;
55497;SDS011;41357;52.806;18.268;2023-05-10T08:21:47;9.95;;;2.10;;
55497;SDS011;41357;52.806;18.268;2023-05-10T08:24:14;5.43;;;2.70;;
55497;SDS011;41357;52.806;18.268;2023-05-10T08:26:40;4.68;;;2.88;;
55497;SDS011;41357;52.806;18.268;2023-05-10T08:29:06;6.93;;;2.55;;
55497;SDS011;41357;52.806;18.268;2023-05-10T08:31:32;10.80;;;2.50;;
55497;SDS011;41357;52.806;18.268;2023-05-10T08:33:58;4.95;;;2.88;;
55497;SDS011;41357;52.806;18.268;2023-05-10T08:36:25;5.10;;;3.00;;
55497;SDS011;41357;52.806;18.268;2023-05-10T08:38:51;3.85;;;2.50;;
55497;SDS011;41357;52.806;18.268;2023-05-10T08:41:20;6.63;;;2.20;;
55497;SDS011;41357;52.806;18.268;2023-05-10T08:46:18;2.92;;;2.00;;
55497;SDS011;41357;52.806;18.268;2023-05-10T08:48:45;5.00;;;2.50;;
55497;SDS011;41357;52.806;18.268;2023-05-10T08:51:13;5.03;;;2.05;;
55497;SDS011;41357;52.806;18.268;2023-05-10T08:53:39;6.00;;;2.20;;
55497;SDS011;41357;52.806;18.268;2023-05-10T08:56:06;5.93;;;2.30;;
55497;SDS011;41357;52.806;18.268;2023-05-10T08:58:32;5.65;;;2.20;;
55497;SDS011;41357;52.806;18.268;2023-05-10T09:00:59;8.40;;;2.35;;
55497;SDS011;41357;52.806;18.268;2023-05-10T09:03:25;5.55;;;2.42;;
55497;SDS011;41357;52.806;18.268;2023-05-10T09:05:51;6.18;;;2.10;;
55497;SDS011;41357;52.806;18.268;2023-05-10T09:08:17;6.22;;;2.35;;
55497;SDS011;41357;52.806;18.268;2023-05-10T09:10:44;5.15;;;2.38;;
55497;SDS011;41357;52.806;18.268;2023-05-10T09:13:12;6.95;;;2.30;;
55497;SDS011;41357;52.806;18.268;2023-05-10T09:15:40;5.25;;;2.55;;
55497;SDS011;41357;52.806;18.268;2023-05-10T09:18:06;5.30;;;3.28;;
55497;SDS011;41357;52.806;18.268;2023-05-10T09:20:32;4.15;;;2.22;;
55497;SDS011;41357;52.806;18.268;2023-05-10T09:22:58;3.30;;;2.05;;
55497;SDS011;41357;52.806;18.268;2023-05-10T09:25:24;9.13;;;2.22;;
55497;SDS011;41357;52.806;18.268;2023-05-10T09:27:51;9.45;;;2.63;;
55497;SDS011;41357;52.806;18.268;2023-05-10T09:30:25;6.60;;;2.15;;
55497;SDS011;41357;52.806;18.268;2023-05-10T09:32:52;3.95;;;2.13;;
55497;SDS011;41357;52.806;18.268;2023-05-10T09:35:19;6.88;;;4.40;;
55497;SDS011;41357;52.806;18.268;2023-05-10T09:37:46;6.75;;;4.53;;
55497;SDS011;41357;52.806;18.268;2023-05-10T09:40:13;3.85;;;2.10;;
55497;SDS011;41357;52.806;18.268;2023-05-10T09:42:42;8.05;;;2.40;;
55497;SDS011;41357;52.806;18.268;2023-05-10T09:45:08;6.20;;;2.25;;
55497;SDS011;41357;52.806;18.268;2023-05-10T09:47:34;4.82;;;2.20;;
55497;SDS011;41357;52.806;18.268;2023-05-10T09:50:02;4.70;;;2.20;;
55497;SDS011;41357;52.806;18.268;2023-05-10T09:55:14;4.25;;;2.22;;
55497;SDS011;41357;52.806;18.268;2023-05-10T09:57:41;4.18;;;2.03;;
55497;SDS011;41357;52.806;18.268;2023-05-10T10:00:07;7.13;;;2.88;;
55497;SDS011;41357;52.806;18.268;2023-05-10T10:02:35;6.53;;;2.20;;
55497;SDS011;41357;52.806;18.268;2023-05-10T10:05:01;3.28;;;2.10;;
55497;SDS011;41357;52.806;18.268;2023-05-10T10:07:30;4.38;;;1.85;;
55497;SDS011;41357;52.806;18.268;2023-05-10T10:09:57;3.05;;;1.58;;
55497;SDS011;41357;52.806;18.268;2023-05-10T10:12:24;3.75;;;1.98;;
55497;SDS011;41357;52.806;18.268;2023-05-10T10:14:51;8.07;;;2.30;;
55497;SDS011;41357;52.806;18.268;2023-05-10T10:17:18;7.90;;;2.13;;
55497;SDS011;41357;52.806;18.268;2023-05-10T10:19:45;3.72;;;1.98;;
55497;SDS011;41357;52.806;18.268;2023-05-10T10:22:12;4.00;;;2.25;;
55497;SDS011;41357;52.806;18.268;2023-05-10T10:24:38;3.95;;;1.83;;
55497;SDS011;41357;52.806;18.268;2023-05-10T10:27:11;10.10;;;2.40;;
55497;SDS011;41357;52.806;18.268;2023-05-10T10:29:48;4.97;;;1.95;;
55497;SDS011;41357;52.806;18.268;2023-05-10T10:34:45;7.13;;;2.20;;
55497;SDS011;41357;52.806;18.268;2023-05-10T10:37:12;7.93;;;2.50;;
55497;SDS011;41357;52.806;18.268;2023-05-10T10:39:38;7.55;;;2.22;;
55497;SDS011;41357;52.806;18.268;2023-05-10T10:42:04;4.95;;;1.92;;
55497;SDS011;41357;52.806;18.268;2023-05-10T10:52:22;7.57;;;2.20;;
55497;SDS011;41357;52.806;18.268;2023-05-10T10:55:34;4.70;;;1.98;;
55497;SDS011;41357;52.806;18.268;2023-05-10T10:57:57;8.45;;;2.17;;
55497;SDS011;41357;52.806;18.268;2023-05-10T11:00:31;5.32;;;1.95;;
55497;SDS011;41357;52.806;18.268;2023-05-10T11:03:04;6.20;;;1.75;;
55497;SDS011;41357;52.806;18.268;2023-05-10T11:05:34;3.78;;;1.67;;
55497;SDS011;41357;52.806;18.268;2023-05-10T11:08:06;7.20;;;2.30;;
55497;SDS011;41357;52.806;18.268;2023-05-10T11:10:32;6.72;;;2.08;;
55497;SDS011;41357;52.806;18.268;2023-05-10T11:12:59;4.75;;;1.90;;
55497;SDS011;41357;52.806;18.268;2023-05-10T11:15:33;6.82;;;2.40;;
55497;SDS011;41357;52.806;18.268;2023-05-10T11:17:59;4.22;;;1.70;;
55497;SDS011;41357;52.806;18.268;2023-05-10T11:20:41;8.52;;;2.28;;
55497;SDS011;41357;52.806;18.268;2023-05-10T11:23:11;4.50;;;2.10;;
55497;SDS011;41357;52.806;18.268;2023-05-10T11:25:44;4.35;;;1.83;;
55497;SDS011;41357;52.806;18.268;2023-05-10T11:28:11;4.20;;;2.22;;
55497;SDS011;41357;52.806;18.268;2023-05-10T11:30:41;5.05;;;2.10;;
55497;SDS011;41357;52.806;18.268;2023-05-10T11:35:38;8.00;;;2.58;;
55497;SDS011;41357;52.806;18.268;2023-05-10T11:38:05;3.35;;;1.88;;
55497;SDS011;41357;52.806;18.268;2023-05-10T11:40:31;4.18;;;1.80;;
55497;SDS011;41357;52.806;18.268;2023-05-10T11:42:57;8.52;;;2.75;;
55497;SDS011;41357;52.806;18.268;2023-05-10T11:45:24;4.50;;;2.20;;
55497;SDS011;41357;52.806;18.268;2023-05-10T11:47:51;3.83;;;2.00;;
55497;SDS011;41357;52.806;18.268;2023-05-10T11:50:17;3.58;;;2.20;;
55497;SDS011;41357;52.806;18.268;2023-05-10T11:52:44;7.43;;;2.20;;
55497;SDS011;41357;52.806;18.268;2023-05-10T11:55:10;5.68;;;2.05;;
55497;SDS011;41357;52.806;18.268;2023-05-10T11:57:36;4.00;;;2.15;;
55497;SDS011;41357;52.806;18.268;2023-05-10T12:00:03;7.18;;;2.20;;
55497;SDS011;41357;52.806;18.268;2023-05-10T12:02:30;8.30;;;2.40;;
55497;SDS011;41357;52.806;18.268;2023-05-10T12:04:56;7.75;;;2.08;;
55497;SDS011;41357;52.806;18.268;2023-05-10T12:07:22;4.20;;;2.47;;
55497;SDS011;41357;52.806;18.268;2023-05-10T12:12:46;12.93;;;3.25;;
55497;SDS011;41357;52.806;18.268;2023-05-10T12:15:25;4.90;;;2.40;;
55497;SDS011;41357;52.806;18.268;2023-05-10T12:17:52;4.45;;;2.10;;
55497;SDS011;41357;52.806;18.268;2023-05-10T12:20:20;6.25;;;2.10;;
55497;SDS011;41357;52.806;18.268;2023-05-10T12:22:48;4.57;;;2.00;;
55497;SDS011;41357;52.806;18.268;2023-05-10T12:25:15;3.10;;;2.08;;
55497;SDS011;41357;52.806;18.268;2023-05-10T12:27:47;4.07;;;2.22;;
55497;SDS011;41357;52.806;18.268;2023-05-10T12:30:13;6.55;;;2.28;;
55497;SDS011;41357;52.806;18.268;2023-05-10T12:35:10;8.25;;;2.30;;
55497;SDS011;41357;52.806;18.268;2023-05-10T12:37:36;4.35;;;2.20;;
55497;SDS011;41357;52.806;18.268;2023-05-10T12:40:07;3.00;;;1.90;;
55497;SDS011;41357;52.806;18.268;2023-05-10T12:42:34;7.68;;;1.98;;
55497;SDS011;41357;52.806;18.268;2023-05-10T12:45:01;7.60;;;2.35;;
55497;SDS011;41357;52.806;18.268;2023-05-10T12:47:27;4.75;;;2.78;;
55497;SDS011;41357;52.806;18.268;2023-05-10T12:49:53;4.22;;;2.17;;
55497;SDS011;41357;52.806;18.268;2023-05-10T12:52:20;11.10;;;2.90;;
55497;SDS011;41357;52.806;18.268;2023-05-10T12:54:46;11.48;;;2.40;;
55497;SDS011;41357;52.806;18.268;2023-05-10T12:57:12;6.65;;;2.20;;
55497;SDS011;41357;52.806;18.268;2023-05-10T12:59:39;4.32;;;2.50;;
55497;SDS011;41357;52.806;18.268;2023-05-10T13:02:05;7.40;;;2.00;;
55497;SDS011;41357;52.806;18.268;2023-05-10T13:04:32;9.35;;;3.08;;
55497;SDS011;41357;52.806;18.268;2023-05-10T13:06:58;11.80;;;2.22;;
55497;SDS011;41357;52.806;18.268;2023-05-10T13:09:24;4.15;;;2.42;;
55497;SDS011;41357;52.806;18.268;2023-05-10T13:11:51;5.20;;;2.30;;
55497;SDS011;41357;52.806;18.268;2023-05-10T13:14:20;8.38;;;2.88;;
55497;SDS011;41357;52.806;18.268;2023-05-10T13:16:47;6.43;;;2.22;;
55497;SDS011;41357;52.806;18.268;2023-05-10T13:19:13;7.45;;;2.40;;
55497;SDS011;41357;52.806;18.268;2023-05-10T13:21:40;8.60;;;2.70;;
55497;SDS011;41357;52.806;18.268;2023-05-10T13:24:06;7.90;;;2.60;;
55497;SDS011;41357;52.806;18.268;2023-05-10T13:26:32;8.45;;;3.13;;
55497;SDS011;41357;52.806;18.268;2023-05-10T13:28:59;4.95;;;2.30;;
55497;SDS011;41357;52.806;18.268;2023-05-10T13:31:25;5.43;;;1.92;;
55497;SDS011;41357;52.806;18.268;2023-05-10T13:33:51;11.93;;;2.55;;
55497;SDS011;41357;52.806;18.268;2023-05-10T13:36:18;6.22;;;2.60;;
55497;SDS011;41357;52.806;18.268;2023-05-10T13:38:44;8.90;;;2.60;;
55497;SDS011;41357;52.806;18.268;2023-05-10T13:41:10;6.70;;;2.63;;
55497;SDS011;41357;52.806;18.268;2023-05-10T13:43:36;6.30;;;1.77;;
55497;SDS011;41357;52.806;18.268;2023-05-10T13:46:02;5.38;;;2.13;;
55497;SDS011;41357;52.806;18.268;2023-05-10T13:48:28;6.28;;;2.10;;
55497;SDS011;41357;52.806;18.268;2023-05-10T13:50:55;10.32;;;2.17;;
55497;SDS011;41357;52.806;18.268;2023-05-10T13:53:21;10.57;;;2.00;;
55497;SDS011;41357;52.806;18.268;2023-05-10T13:55:47;7.40;;;2.22;;
55497;SDS011;41357;52.806;18.268;2023-05-10T13:58:13;4.32;;;2.30;;
55497;SDS011;41357;52.806;18.268;2023-05-10T14:00:39;5.88;;;2.13;;
55497;SDS011;41357;52.806;18.268;2023-05-10T14:03:05;5.80;;;2.05;;
55497;SDS011;41357;52.806;18.268;2023-05-10T14:05:33;5.82;;;2.33;;
55497;SDS011;41357;52.806;18.268;2023-05-10T14:08:00;6.95;;;2.20;;
55497;SDS011;41357;52.806;18.268;2023-05-10T14:10:26;5.55;;;1.88;;
55497;SDS011;41357;52.806;18.268;2023-05-10T14:12:52;9.77;;;2.20;;
55497;SDS011;41357;52.806;18.268;2023-05-10T14:15:18;8.52;;;2.08;;
55497;SDS011;41357;52.806;18.268;2023-05-10T14:17:44;5.43;;;2.40;;
55497;SDS011;41357;52.806;18.268;2023-05-10T14:20:10;6.05;;;2.30;;
55497;SDS011;41357;52.806;18.268;2023-05-10T14:22:37;6.15;;;2.83;;
55497;SDS011;41357;52.806;18.268;2023-05-10T14:25:03;4.00;;;2.30;;
55497;SDS011;41357;52.806;18.268;2023-05-10T14:27:29;6.93;;;1.90;;
55497;SDS011;41357;52.806;18.268;2023-05-10T14:29:55;5.90;;;2.00;;
55497;SDS011;41357;52.806;18.268;2023-05-10T14:32:21;3.28;;;1.88;;
55497;SDS011;41357;52.806;18.268;2023-05-10T14:34:47;4.63;;;2.13;;
55497;SDS011;41357;52.806;18.268;2023-05-10T14:37:14;6.88;;;2.40;;
55497;SDS011;41357;52.806;18.268;2023-05-10T14:39:40;9.52;;;2.10;;
55497;SDS011;41357;52.806;18.268;2023-05-10T14:42:07;6.10;;;2.38;;
55497;SDS011;41357;52.806;18.268;2023-05-10T14:44:34;5.32;;;2.22;;
55497;SDS011;41357;52.806;18.268;2023-05-10T14:47:00;5.65;;;2.50;;
55497;SDS011;41357;52.806;18.268;2023-05-10T14:49:26;7.25;;;1.80;;
55497;SDS011;41357;52.806;18.268;2023-05-10T14:51:52;5.97;;;1.83;;
55497;SDS011;41357;52.806;18.268;2023-05-10T14:54:18;3.63;;;1.95;;
55497;SDS011;41357;52.806;18.268;2023-05-10T14:56:45;5.28;;;2.08;;
55497;SDS011;41357;52.806;18.268;2023-05-10T14:59:13;7.38;;;1.70;;
55497;SDS011;41357;52.806;18.268;2023-05-10T15:01:39;6.85;;;2.00;;
55497;SDS011;41357;52.806;18.268;2023-05-10T15:04:07;5.43;;;1.73;;
55497;SDS011;41357;52.806;18.268;2023-05-10T15:06:33;2.75;;;1.60;;
55497;SDS011;41357;52.806;18.268;2023-05-10T15:09:00;9.95;;;2.05;;